createdAt,value
2022-09-17T00:00:20.797Z,99478.28
2022-09-17T00:00:52.210Z,99476.84
2022-09-17T00:01:23.904Z,99478.44
2022-09-17T00:01:55.408Z,99479.88
2022-09-17T00:02:27.316Z,99473.91
2022-09-17T00:02:58.814Z,99468.94
2022-09-17T00:03:30.301Z,99479.88
2022-09-17T00:04:01.681Z,99471.53
2022-09-17T00:04:33.297Z,99482.81
2022-09-17T00:05:07.353Z,99473.28
2022-09-17T00:05:38.794Z,99476.34
2022-09-17T00:06:10.198Z,99480.50
2022-09-17T00:06:41.731Z,99483.25
2022-09-17T00:07:15.679Z,99485.50
2022-09-17T00:07:49.814Z,99487.72
2022-09-17T00:08:21.214Z,99490.28
2022-09-17T00:08:53.006Z,99485.94
2022-09-17T00:09:24.464Z,99484.50
2022-09-17T00:09:55.923Z,99484.19
2022-09-17T00:10:27.438Z,99485.81
2022-09-17T00:10:58.871Z,99489.53
2022-09-17T00:11:35.528Z,99484.69
2022-09-17T00:12:07.246Z,99481.13
2022-09-17T00:12:38.657Z,99480.66
2022-09-17T00:13:12.913Z,99482.56
2022-09-17T00:13:44.408Z,99480.97
2022-09-17T00:14:15.902Z,99480.81
2022-09-17T00:14:47.347Z,99481.94
2022-09-17T00:15:21.085Z,99477.41
2022-09-17T00:15:52.712Z,99479.34
2022-09-17T00:16:24.258Z,99478.53
2022-09-17T00:16:58.799Z,99473.19
2022-09-17T00:17:33.245Z,99480.09
2022-09-17T00:18:04.633Z,99480.09
2022-09-17T00:18:36.285Z,99486.50
2022-09-17T00:19:07.716Z,99483.47
2022-09-17T00:19:39.275Z,99493.91
2022-09-17T00:20:10.676Z,99488.75
2022-09-17T00:20:42.096Z,99490.03
2022-09-17T00:21:13.592Z,99486.19
2022-09-17T00:21:45.198Z,99489.72
2022-09-17T00:22:16.739Z,99495.38
2022-09-17T00:22:48.134Z,99490.41
2022-09-17T00:23:19.591Z,99492.34
2022-09-17T00:23:51.344Z,99495.56
2022-09-17T00:24:22.863Z,99494.94
2022-09-17T00:24:54.302Z,99496.75
2022-09-17T00:25:25.717Z,99502.38
2022-09-17T00:25:57.322Z,99491.75
2022-09-17T00:26:34.429Z,99488.84
2022-09-17T00:27:05.881Z,99487.53
2022-09-17T00:27:37.629Z,99489.16
2022-09-17T00:28:09.086Z,99492.22
2022-09-17T00:28:40.477Z,99484.00
2022-09-17T00:29:11.912Z,99493.94
2022-09-17T00:29:44.832Z,99493.31
2022-09-17T00:30:16.361Z,99492.53
2022-09-17T00:30:47.843Z,99490.91
2022-09-17T00:31:19.349Z,99486.13
2022-09-17T00:31:51.471Z,99492.53
2022-09-17T00:32:23.027Z,99492.66
2022-09-17T00:32:57.348Z,99494.56
2022-09-17T00:33:28.791Z,99493.03
2022-09-17T00:34:00.287Z,99505.06
2022-09-17T00:34:31.691Z,99504.44
2022-09-17T00:35:03.244Z,99496.06
2022-09-17T00:35:34.820Z,99507.00
2022-09-17T00:36:06.197Z,99498.81
2022-09-17T00:36:37.560Z,99493.66
2022-09-17T00:37:09.276Z,99495.56
2022-09-17T00:37:43.679Z,99491.53
2022-09-17T00:38:15.245Z,99493.78
2022-09-17T00:38:46.724Z,99499.25
2022-09-17T00:39:18.159Z,99494.56
2022-09-17T00:39:49.749Z,99491.84
2022-09-17T00:40:21.418Z,99499.72
2022-09-17T00:40:52.976Z,99496.50
2022-09-17T00:41:24.359Z,99492.97
2022-09-17T00:41:55.808Z,99495.69
2022-09-17T00:42:27.292Z,99495.69
2022-09-17T00:42:58.664Z,99493.91
2022-09-17T00:43:30.245Z,99502.91
2022-09-17T00:44:01.829Z,99500.47
2022-09-17T00:44:33.290Z,99501.78
2022-09-17T00:45:07.450Z,99496.94
2022-09-17T00:45:40.032Z,99499.69
2022-09-17T00:46:11.597Z,99502.53
2022-09-17T00:46:43.204Z,99499.94
2022-09-17T00:47:14.903Z,99495.09
2022-09-17T00:47:46.361Z,99491.53
2022-09-17T00:48:17.770Z,99493.78
2022-09-17T00:48:49.273Z,99497.13
2022-09-17T00:49:20.794Z,99496.50
2022-09-17T00:49:52.422Z,99498.31
2022-09-17T00:50:23.825Z,99504.78
2022-09-17T00:50:55.361Z,99495.16
2022-09-17T00:51:26.898Z,99504.16
2022-09-17T00:52:01.322Z,99501.72
2022-09-17T00:52:32.824Z,99498.06
2022-09-17T00:53:04.277Z,99500.47
2022-09-17T00:53:35.677Z,99491.66
2022-09-17T00:54:07.262Z,99497.63
2022-09-17T00:54:38.674Z,99496.81
2022-09-17T00:55:10.072Z,99497.00
2022-09-17T00:55:41.470Z,99489.13
2022-09-17T00:56:12.997Z,99485.75
2022-09-17T00:56:44.651Z,99493.94
2022-09-17T00:57:16.040Z,99494.75
2022-09-17T00:57:47.747Z,99495.38
2022-09-17T00:58:19.178Z,99497.31
2022-09-17T00:58:51.022Z,99493.47
2022-09-17T00:59:22.479Z,99496.69
2022-09-17T00:59:54.070Z,99502.78
2022-09-17T01:00:25.481Z,99494.28
2022-09-17T01:00:57.152Z,99486.06
2022-09-17T01:01:28.645Z,99489.28
2022-09-17T01:02:00.242Z,99490.09
2022-09-17T01:02:31.757Z,99496.06
2022-09-17T01:03:03.333Z,99496.88
2022-09-17T01:03:34.783Z,99492.69
2022-09-17T01:04:06.190Z,99502.03
2022-09-17T01:04:37.582Z,99493.19
2022-09-17T01:05:09.071Z,99498.97
2022-09-17T01:05:40.516Z,99495.44
2022-09-17T01:06:12.166Z,99501.91
2022-09-17T01:06:43.559Z,99500.78
2022-09-17T01:07:14.957Z,99503.00
2022-09-17T01:07:46.399Z,99506.25
2022-09-17T01:08:17.841Z,99506.25
2022-09-17T01:08:49.362Z,99500.78
2022-09-17T01:09:20.821Z,99509.47
2022-09-17T01:09:52.476Z,99505.13
2022-09-17T01:10:23.864Z,99507.88
2022-09-17T01:10:55.292Z,99509.59
2022-09-17T01:11:26.793Z,99499.97
2022-09-17T01:11:58.293Z,99503.78
2022-09-17T01:12:29.817Z,99507.88
2022-09-17T01:13:01.236Z,99509.13
2022-09-17T01:13:32.819Z,99504.59
2022-09-17T01:14:04.396Z,99505.84
2022-09-17T01:14:35.894Z,99506.63
2022-09-17T01:15:07.310Z,99505.03
2022-09-17T01:15:38.816Z,99511.00
2022-09-17T01:16:10.377Z,99509.88
2022-09-17T01:16:42.073Z,99510.69
2022-09-17T01:17:13.562Z,99506.81
2022-09-17T01:17:45.026Z,99505.22
2022-09-17T01:18:16.431Z,99505.41
2022-09-17T01:18:48.107Z,99508.25
2022-09-17T01:19:19.483Z,99506.50
2022-09-17T01:19:51.103Z,99506.13
2022-09-17T01:20:22.576Z,99506.94
2022-09-17T01:20:54.163Z,99511.78
2022-09-17T01:21:25.542Z,99508.44
2022-09-17T01:21:57.327Z,99504.91
2022-09-17T01:22:28.854Z,99512.09
2022-09-17T01:23:00.304Z,99511.59
2022-09-17T01:23:31.717Z,99507.75
2022-09-17T01:24:03.251Z,99511.00
2022-09-17T01:24:34.626Z,99505.53
2022-09-17T01:25:06.153Z,99511.78
2022-09-17T01:25:37.644Z,99507.63
2022-09-17T01:26:11.521Z,99507.31
2022-09-17T01:26:42.989Z,99506.38
2022-09-17T01:27:14.485Z,99504.78
2022-09-17T01:27:46.009Z,99511.06
2022-09-17T01:28:17.504Z,99510.75
2022-09-17T01:28:49.069Z,99512.66
2022-09-17T01:29:20.473Z,99506.69
2022-09-17T01:29:51.864Z,99509.75
2022-09-17T01:30:23.349Z,99509.44
2022-09-17T01:30:54.791Z,99505.91
2022-09-17T01:31:26.508Z,99514.09
2022-09-17T01:31:57.938Z,99510.56
2022-09-17T01:32:29.455Z,99512.16
2022-09-17T01:33:00.972Z,99510.75
2022-09-17T01:33:35.515Z,99510.25
2022-09-17T01:34:06.995Z,99511.84
2022-09-17T01:34:38.431Z,99514.28
2022-09-17T01:35:09.831Z,99508.81
2022-09-17T01:35:41.351Z,99516.41
2022-09-17T01:36:12.842Z,99509.63
2022-09-17T01:36:44.266Z,99513.47
2022-09-17T01:37:15.767Z,99515.41
2022-09-17T01:37:47.590Z,99512.84
2022-09-17T01:38:19.093Z,99515.09
2022-09-17T01:38:50.547Z,99510.44
2022-09-17T01:39:22.061Z,99509.44
2022-09-17T01:39:53.581Z,99506.38
2022-09-17T01:40:31.072Z,99512.66
2022-09-17T01:41:02.661Z,99510.44
2022-09-17T01:41:34.089Z,99510.44
2022-09-17T01:42:05.520Z,99517.00
2022-09-17T01:42:37.070Z,99514.59
2022-09-17T01:43:08.514Z,99514.91
2022-09-17T01:43:40.243Z,99516.81
2022-09-17T01:44:11.770Z,99515.41
2022-09-17T01:44:43.281Z,99514.09
2022-09-17T01:45:14.763Z,99521.97
2022-09-17T01:45:46.492Z,99512.78
2022-09-17T01:46:17.911Z,99517.75
2022-09-17T01:46:49.399Z,99514.22
2022-09-17T01:47:21.346Z,99523.22
2022-09-17T01:47:52.944Z,99519.69
2022-09-17T01:48:24.395Z,99523.41
2022-09-17T01:48:55.810Z,99520.81
2022-09-17T01:49:27.300Z,99520.81
2022-09-17T01:49:58.878Z,99522.34
2022-09-17T01:50:30.522Z,99517.00
2022-09-17T01:51:01.924Z,99521.16
2022-09-17T01:51:33.443Z,99521.16
2022-09-17T01:52:04.870Z,99519.66
2022-09-17T01:52:39.190Z,99521.97
2022-09-17T01:53:10.693Z,99521.97
2022-09-17T01:53:42.120Z,99523.59
2022-09-17T01:54:13.613Z,99524.09
2022-09-17T01:54:45.267Z,99525.41
2022-09-17T01:55:16.777Z,99521.22
2022-09-17T01:55:48.230Z,99529.63
2022-09-17T01:56:19.738Z,99525.47
2022-09-17T01:56:51.327Z,99520.31
2022-09-17T01:57:22.922Z,99523.34
2022-09-17T01:57:54.418Z,99527.06
2022-09-17T01:58:25.981Z,99524.84
2022-09-17T01:58:57.426Z,99528.88
2022-09-17T01:59:31.869Z,99516.03
2022-09-17T02:00:06.252Z,99522.28
2022-09-17T02:00:38.030Z,99523.09
2022-09-17T02:01:09.584Z,99529.06
2022-09-17T02:01:41.072Z,99520.56
2022-09-17T02:02:12.657Z,99522.97
2022-09-17T02:02:44.259Z,99525.41
2022-09-17T02:03:15.828Z,99522.16
2022-09-17T02:03:47.264Z,99517.50
2022-09-17T02:04:18.688Z,99524.91
2022-09-17T02:04:50.358Z,99517.50
2022-09-17T02:05:21.960Z,99516.41
2022-09-17T02:05:53.357Z,99518.31
2022-09-17T02:06:24.968Z,99520.25
2022-09-17T02:06:56.380Z,99524.59
2022-09-17T02:07:28.036Z,99521.84
2022-09-17T02:07:59.429Z,99518.81
2022-09-17T02:08:31.116Z,99523.97
2022-09-17T02:09:02.645Z,99523.78
2022-09-17T02:09:34.023Z,99524.91
2022-09-17T02:10:05.505Z,99523.47
2022-09-17T02:10:36.938Z,99522.53
2022-09-17T02:11:08.465Z,99526.09
2022-09-17T02:11:39.887Z,99524.34
2022-09-17T02:12:11.360Z,99521.13
2022-09-17T02:12:42.939Z,99525.66
2022-09-17T02:13:14.433Z,99522.91
2022-09-17T02:13:45.914Z,99532.41
2022-09-17T02:14:17.316Z,99530.31
2022-09-17T02:14:48.980Z,99521.28
2022-09-17T02:15:23.563Z,99524.84
2022-09-17T02:15:55.046Z,99520.50
2022-09-17T02:16:26.914Z,99522.41
2022-09-17T02:16:58.374Z,99530.31
2022-09-17T02:17:30.027Z,99524.34
2022-09-17T02:18:01.467Z,99525.66
2022-09-17T02:18:35.860Z,99525.66
2022-09-17T02:19:07.282Z,99529.31
2022-09-17T02:19:38.752Z,99530.94
2022-09-17T02:20:10.155Z,99532.84
2022-09-17T02:20:41.745Z,99521.91
2022-09-17T02:21:13.192Z,99530.13
2022-09-17T02:21:44.554Z,99531.25
2022-09-17T02:22:16.013Z,99525.47
2022-09-17T02:22:47.482Z,99529.50
2022-09-17T02:23:19.257Z,99534.97
2022-09-17T02:23:50.646Z,99537.88
2022-09-17T02:24:22.171Z,99533.22
2022-09-17T02:24:53.610Z,99534.66
2022-09-17T02:25:25.011Z,99537.56
2022-09-17T02:25:56.495Z,99533.22
2022-09-17T02:26:27.949Z,99531.00
2022-09-17T02:26:59.365Z,99533.22
2022-09-17T02:27:30.778Z,99530.50
2022-09-17T02:28:03.535Z,99528.56
2022-09-17T02:28:35.245Z,99528.06
2022-09-17T02:29:06.707Z,99532.41
2022-09-17T02:29:40.885Z,99524.22
2022-09-17T02:30:12.357Z,99530.31
2022-09-17T02:30:43.846Z,99531.91
2022-09-17T02:31:15.415Z,99529.00
2022-09-17T02:31:47.021Z,99526.75
2022-09-17T02:32:18.577Z,99531.75
2022-09-17T02:32:49.988Z,99523.53
2022-09-17T02:33:21.439Z,99528.69
2022-09-17T02:33:53.273Z,99526.13
2022-09-17T02:34:24.801Z,99529.69
2022-09-17T02:34:56.182Z,99533.34
2022-09-17T02:35:27.756Z,99528.50
2022-09-17T02:35:59.202Z,99537.88
2022-09-17T02:36:34.258Z,99536.66
2022-09-17T02:37:05.710Z,99527.88
2022-09-17T02:37:40.214Z,99530.84
2022-09-17T02:38:11.741Z,99530.16
2022-09-17T02:38:43.185Z,99535.44
2022-09-17T02:39:14.657Z,99534.31
2022-09-17T02:39:46.153Z,99534.63
2022-09-17T02:40:20.443Z,99535.56
2022-09-17T02:40:52.008Z,99535.06
2022-09-17T02:41:23.435Z,99534.56
2022-09-17T02:41:54.938Z,99528.47
2022-09-17T02:42:26.680Z,99539.41
2022-09-17T02:42:58.198Z,99528.19
2022-09-17T02:43:29.786Z,99533.34
2022-09-17T02:44:01.380Z,99529.91
2022-09-17T02:44:32.949Z,99528.97
2022-09-17T02:45:04.959Z,99534.75
2022-09-17T02:45:36.382Z,99536.69
2022-09-17T02:46:07.868Z,99538.91
2022-09-17T02:46:39.407Z,99535.69
2022-09-17T02:47:10.897Z,99538.91
2022-09-17T02:47:42.316Z,99540.22
2022-09-17T02:48:13.857Z,99527.97
2022-09-17T02:48:45.312Z,99529.91
2022-09-17T02:49:16.691Z,99531.84
2022-09-17T02:49:48.329Z,99521.53
2022-09-17T02:50:19.733Z,99530.22
2022-09-17T02:50:51.276Z,99519.28
2022-09-17T02:51:22.702Z,99520.91
2022-09-17T02:51:54.153Z,99527.19
2022-09-17T02:52:25.693Z,99525.56
2022-09-17T02:52:57.099Z,99522.31
2022-09-17T02:53:28.648Z,99523.75
2022-09-17T02:54:00.114Z,99523.75
2022-09-17T02:54:31.787Z,99522.63
2022-09-17T02:55:03.239Z,99521.63
2022-09-17T02:55:34.924Z,99531.75
2022-09-17T02:56:06.297Z,99525.97
2022-09-17T02:56:37.795Z,99522.75
2022-09-17T02:57:09.226Z,99528.41
2022-09-17T02:57:40.782Z,99520.81
2022-09-17T02:58:12.263Z,99521.81
2022-09-17T02:58:43.676Z,99524.88
2022-09-17T02:59:15.301Z,99526.47
2022-09-17T02:59:46.774Z,99525.47
2022-09-17T03:00:18.329Z,99531.44
2022-09-17T03:00:49.759Z,99531.13
2022-09-17T03:01:21.363Z,99529.81
2022-09-17T03:01:52.884Z,99537.72
2022-09-17T03:02:24.341Z,99531.94
2022-09-17T03:02:55.819Z,99535.78
2022-09-17T03:03:27.249Z,99542.56
2022-09-17T03:03:58.961Z,99529.72
2022-09-17T03:04:30.308Z,99532.44
2022-09-17T03:05:01.759Z,99533.25
2022-09-17T03:05:33.119Z,99534.69
2022-09-17T03:06:04.513Z,99524.88
2022-09-17T03:06:36.003Z,99536.91
2022-09-17T03:07:07.418Z,99528.72
2022-09-17T03:07:38.827Z,99531.44
2022-09-17T03:08:10.299Z,99529.03
2022-09-17T03:08:41.916Z,99530.13
2022-09-17T03:09:13.410Z,99524.47
2022-09-17T03:09:44.826Z,99521.44
2022-09-17T03:10:16.390Z,99521.13
2022-09-17T03:10:47.856Z,99520.63
2022-09-17T03:11:19.352Z,99518.72
2022-09-17T03:11:50.893Z,99520.63
2022-09-17T03:12:22.440Z,99525.59
2022-09-17T03:12:53.813Z,99525.28
2022-09-17T03:13:25.275Z,99523.38
2022-09-17T03:13:56.803Z,99529.63
2022-09-17T03:14:28.364Z,99528.81
2022-09-17T03:15:03.370Z,99528.03
2022-09-17T03:15:35.083Z,99536.72
2022-09-17T03:16:06.707Z,99540.25
2022-09-17T03:16:38.247Z,99541.06
2022-09-17T03:17:09.699Z,99541.88
2022-09-17T03:17:41.220Z,99541.88
2022-09-17T03:18:12.678Z,99536.41
2022-09-17T03:18:44.101Z,99531.56
2022-09-17T03:19:15.577Z,99534.78
2022-09-17T03:19:47.204Z,99539.13
2022-09-17T03:20:18.599Z,99536.72
2022-09-17T03:20:50.095Z,99537.03
2022-09-17T03:21:21.556Z,99533.19
2022-09-17T03:21:53.024Z,99536.72
2022-09-17T03:22:24.511Z,99538.31
2022-09-17T03:22:55.999Z,99534.47
2022-09-17T03:23:27.668Z,99542.97
2022-09-17T03:23:59.085Z,99545.72
2022-09-17T03:24:30.525Z,99534.91
2022-09-17T03:25:02.064Z,99538.13
2022-09-17T03:25:33.456Z,99532.66
2022-09-17T03:26:04.902Z,99532.66
2022-09-17T03:26:36.395Z,99533.47
2022-09-17T03:27:07.818Z,99528.03
2022-09-17T03:27:39.258Z,99538.94
2022-09-17T03:28:10.757Z,99538.13
2022-09-17T03:28:42.222Z,99540.06
2022-09-17T03:29:13.599Z,99538.13
2022-09-17T03:29:45.082Z,99531.56
2022-09-17T03:30:16.586Z,99536.22
2022-09-17T03:30:51.015Z,99531.66
2022-09-17T03:31:22.478Z,99525.72
2022-09-17T03:31:53.905Z,99537.94
2022-09-17T03:32:25.437Z,99538.13
2022-09-17T03:32:56.941Z,99538.13
2022-09-17T03:33:28.377Z,99536.53
2022-09-17T03:33:59.795Z,99533.59
2022-09-17T03:34:31.463Z,99534.91
2022-09-17T03:35:02.831Z,99537.31
2022-09-17T03:35:34.370Z,99535.72
2022-09-17T03:36:05.864Z,99534.41
2022-09-17T03:36:37.391Z,99533.91
2022-09-17T03:37:08.881Z,99529.25
2022-09-17T03:37:40.283Z,99532.47
2022-09-17T03:38:11.873Z,99538.75
2022-09-17T03:38:43.307Z,99528.94
2022-09-17T03:39:14.734Z,99536.31
2022-09-17T03:39:46.260Z,99534.72
2022-09-17T03:40:17.770Z,99535.53
2022-09-17T03:40:49.556Z,99535.53
2022-09-17T03:41:21.007Z,99537.44
2022-09-17T03:41:52.435Z,99535.53
2022-09-17T03:42:23.876Z,99532.28
2022-09-17T03:42:55.405Z,99532.47
2022-09-17T03:43:26.858Z,99526.81
2022-09-17T03:43:58.854Z,99535.00
2022-09-17T03:44:30.244Z,99535.81
2022-09-17T03:45:02.325Z,99541.91
2022-09-17T03:45:39.345Z,99531.78
2022-09-17T03:46:10.891Z,99534.22
2022-09-17T03:46:42.468Z,99539.38
2022-09-17T03:47:13.987Z,99544.31
2022-09-17T03:47:45.746Z,99539.66
2022-09-17T03:48:17.321Z,99539.97
2022-09-17T03:48:48.719Z,99542.41
2022-09-17T03:49:20.404Z,99547.06
2022-09-17T03:49:51.815Z,99545.94
2022-09-17T03:50:23.244Z,99558.47
2022-09-17T03:50:54.774Z,99546.25
2022-09-17T03:51:26.350Z,99548.97
2022-09-17T03:51:57.820Z,99548.16
2022-09-17T03:52:29.265Z,99549.78
2022-09-17T03:53:00.750Z,99543.81
2022-09-17T03:53:32.170Z,99554.13
2022-09-17T03:54:03.685Z,99546.84
2022-09-17T03:54:35.053Z,99546.06
2022-09-17T03:55:06.565Z,99551.22
2022-09-17T03:55:38.057Z,99553.13
2022-09-17T03:56:09.479Z,99552.00
2022-09-17T03:56:41.263Z,99549.59
2022-09-17T03:57:12.918Z,99549.28
2022-09-17T03:57:44.591Z,99548.97
2022-09-17T03:58:16.007Z,99547.06
2022-09-17T03:58:47.497Z,99547.34
2022-09-17T03:59:18.936Z,99557.47
2022-09-17T03:59:50.413Z,99547.66
2022-09-17T04:00:21.869Z,99550.09
2022-09-17T04:00:53.574Z,99552.81
2022-09-17T04:01:27.952Z,99556.16
2022-09-17T04:01:59.452Z,99549.28
2022-09-17T04:02:30.951Z,99553.94
2022-09-17T04:03:02.615Z,99556.38
2022-09-17T04:03:34.269Z,99556.38
2022-09-17T04:04:05.865Z,99556.66
2022-09-17T04:04:37.297Z,99559.09
2022-09-17T04:05:08.726Z,99562.94
2022-09-17T04:05:40.320Z,99560.22
2022-09-17T04:06:14.683Z,99552.81
2022-09-17T04:06:46.176Z,99552.81
2022-09-17T04:07:17.658Z,99562.94
2022-09-17T04:07:49.102Z,99563.25
2022-09-17T04:08:20.576Z,99563.56
2022-09-17T04:08:52.342Z,99558.09
2022-09-17T04:09:23.754Z,99553.44
2022-09-17T04:09:55.223Z,99560.00
2022-09-17T04:10:26.762Z,99558.09
2022-09-17T04:10:58.368Z,99559.19
2022-09-17T04:11:29.814Z,99560.81
2022-09-17T04:12:01.362Z,99560.00
2022-09-17T04:12:32.935Z,99565.75
2022-09-17T04:13:04.387Z,99553.22
2022-09-17T04:13:36.162Z,99553.50
2022-09-17T04:14:07.620Z,99556.75
2022-09-17T04:14:39.108Z,99554.25
2022-09-17T04:15:10.578Z,99552.31
2022-09-17T04:15:42.105Z,99548.84
2022-09-17T04:16:13.573Z,99545.81
2022-09-17T04:16:45.088Z,99553.22
2022-09-17T04:17:16.496Z,99548.97
2022-09-17T04:17:47.959Z,99544.50
2022-09-17T04:18:19.603Z,99554.31
2022-09-17T04:18:51.052Z,99551.59
2022-09-17T04:19:22.492Z,99557.06
2022-09-17T04:19:54.065Z,99560.28
2022-09-17T04:20:25.552Z,99554.31
2022-09-17T04:20:57.143Z,99561.94
2022-09-17T04:21:28.743Z,99562.22
2022-09-17T04:22:00.391Z,99556.47
2022-09-17T04:22:31.951Z,99557.56
2022-09-17T04:23:03.617Z,99559.78
2022-09-17T04:23:35.314Z,99559.19
2022-09-17T04:24:09.884Z,99561.94
2022-09-17T04:24:41.326Z,99557.84
2022-09-17T04:25:12.733Z,99561.41
2022-09-17T04:25:44.279Z,99570.19
2022-09-17T04:26:15.884Z,99567.66
2022-09-17T04:26:47.335Z,99558.41
2022-09-17T04:27:18.764Z,99558.09
2022-09-17T04:27:50.234Z,99561.94
2022-09-17T04:28:21.654Z,99566.84
2022-09-17T04:28:53.116Z,99559.78
2022-09-17T04:29:24.599Z,99562.31
2022-09-17T04:29:56.019Z,99564.94
2022-09-17T04:30:27.572Z,99565.25
2022-09-17T04:30:59.102Z,99566.06
2022-09-17T04:31:30.748Z,99566.06
2022-09-17T04:32:02.291Z,99561.69
2022-09-17T04:32:36.867Z,99564.13
2022-09-17T04:33:08.292Z,99569.91
2022-09-17T04:33:39.759Z,99565.25
2022-09-17T04:34:11.211Z,99570.19
2022-09-17T04:34:42.705Z,99567.16
2022-09-17T04:35:14.268Z,99563.63
2022-09-17T04:35:45.730Z,99562.81
2022-09-17T04:36:17.303Z,99563.13
2022-09-17T04:36:48.847Z,99562.00
2022-09-17T04:37:20.230Z,99562.81
2022-09-17T04:37:51.696Z,99558.78
2022-09-17T04:38:23.120Z,99562.63
2022-09-17T04:38:57.334Z,99564.22
2022-09-17T04:39:28.764Z,99566.66
2022-09-17T04:40:00.975Z,99567.97
2022-09-17T04:40:34.332Z,99566.06
2022-09-17T04:41:05.944Z,99562.50
2022-09-17T04:41:37.468Z,99560.59
2022-09-17T04:42:08.937Z,99565.25
2022-09-17T04:42:40.352Z,99563.31
2022-09-17T04:43:11.901Z,99564.75
2022-09-17T04:43:43.319Z,99567.97
2022-09-17T04:44:14.777Z,99569.09
2022-09-17T04:44:46.256Z,99574.56
2022-09-17T04:45:17.913Z,99580.81
2022-09-17T04:45:49.472Z,99566.66
2022-09-17T04:46:20.969Z,99567.16
2022-09-17T04:46:52.543Z,99567.47
2022-09-17T04:47:23.999Z,99569.91
2022-09-17T04:47:58.301Z,99572.94
2022-09-17T04:48:29.740Z,99570.50
2022-09-17T04:49:01.167Z,99566.47
2022-09-17T04:49:32.728Z,99561.81
2022-09-17T04:50:04.144Z,99574.03
2022-09-17T04:50:35.618Z,99568.88
2022-09-17T04:51:07.037Z,99575.66
2022-09-17T04:51:38.576Z,99571.31
2022-09-17T04:52:10.007Z,99575.16
2022-09-17T04:52:41.450Z,99573.22
2022-09-17T04:53:12.999Z,99576.28
2022-09-17T04:53:44.433Z,99573.53
2022-09-17T04:54:18.807Z,99574.34
2022-09-17T04:54:50.204Z,99575.47
2022-09-17T04:55:21.691Z,99574.03
2022-09-17T04:55:53.153Z,99568.88
2022-09-17T04:56:24.704Z,99581.72
2022-09-17T04:56:56.466Z,99577.09
2022-09-17T04:57:27.880Z,99576.88
2022-09-17T04:57:59.259Z,99570.31
2022-09-17T04:58:30.651Z,99580.72
2022-09-17T04:59:02.145Z,99581.22
2022-09-17T04:59:33.622Z,99575.47
2022-09-17T05:00:07.923Z,99579.00
2022-09-17T05:00:39.503Z,99578.38
2022-09-17T05:01:11.116Z,99579.00
2022-09-17T05:01:42.652Z,99577.09
2022-09-17T05:02:14.416Z,99568.38
2022-09-17T05:02:46.137Z,99583.97
2022-09-17T05:03:17.516Z,99581.72
2022-09-17T05:03:48.927Z,99579.81
2022-09-17T05:04:20.592Z,99583.34
2022-09-17T05:04:52.017Z,99581.44
2022-09-17T05:05:23.509Z,99580.91
2022-09-17T05:05:54.899Z,99578.19
2022-09-17T05:06:29.194Z,99578.50
2022-09-17T05:07:00.799Z,99577.88
2022-09-17T05:07:32.314Z,99579.00
2022-09-17T05:08:06.767Z,99576.06
2022-09-17T05:08:38.219Z,99579.59
2022-09-17T05:09:09.615Z,99581.84
2022-09-17T05:09:41.028Z,99579.91
2022-09-17T05:10:12.460Z,99579.59
2022-09-17T05:10:44.025Z,99579.59
2022-09-17T05:11:15.446Z,99579.41
2022-09-17T05:11:46.863Z,99583.44
2022-09-17T05:12:18.289Z,99582.03
2022-09-17T05:12:49.758Z,99585.06
2022-09-17T05:13:21.361Z,99579.91
2022-09-17T05:13:52.807Z,99579.59
2022-09-17T05:14:24.479Z,99587.50
2022-09-17T05:14:55.880Z,99583.97
2022-09-17T05:15:27.455Z,99588.91
2022-09-17T05:15:58.987Z,99578.00
2022-09-17T05:16:30.650Z,99591.66
2022-09-17T05:17:02.146Z,99585.06
2022-09-17T05:17:33.910Z,99590.03
2022-09-17T05:18:05.390Z,99590.53
2022-09-17T05:18:36.840Z,99583.44
2022-09-17T05:19:08.349Z,99596.59
2022-09-17T05:19:39.742Z,99593.25
2022-09-17T05:20:11.201Z,99595.19
2022-09-17T05:20:42.610Z,99590.31
2022-09-17T05:21:16.369Z,99590.03
2022-09-17T05:21:47.822Z,99586.38
2022-09-17T05:22:21.468Z,99593.56
2022-09-17T05:22:53.149Z,99597.91
2022-09-17T05:23:24.566Z,99590.31
2022-09-17T05:23:56.028Z,99591.94
2022-09-17T05:24:27.648Z,99591.13
2022-09-17T05:24:59.085Z,99591.66
2022-09-17T05:25:30.489Z,99582.66
2022-09-17T05:26:02.068Z,99585.06
2022-09-17T05:26:33.581Z,99585.06
2022-09-17T05:27:05.026Z,99583.44
2022-09-17T05:27:36.549Z,99583.44
2022-09-17T05:28:08.067Z,99585.06
2022-09-17T05:28:39.645Z,99580.22
2022-09-17T05:29:11.116Z,99589.72
2022-09-17T05:29:42.694Z,99584.25
2022-09-17T05:30:14.111Z,99593.56
2022-09-17T05:30:45.826Z,99585.06
2022-09-17T05:31:17.272Z,99594.38
2022-09-17T05:31:48.954Z,99592.75
2022-09-17T05:32:20.442Z,99588.41
2022-09-17T05:32:51.890Z,99594.97
2022-09-17T05:33:23.336Z,99590.84
2022-09-17T05:33:54.990Z,99587.28
2022-09-17T05:34:26.682Z,99590.31
2022-09-17T05:34:58.817Z,99591.94
2022-09-17T05:35:32.071Z,99592.75
2022-09-17T05:36:03.571Z,99589.22
2022-09-17T05:36:35.335Z,99591.13
2022-09-17T05:37:06.860Z,99591.13
2022-09-17T05:37:38.255Z,99587.28
2022-09-17T05:38:09.775Z,99594.69
2022-09-17T05:38:41.246Z,99596.59
2022-09-17T05:39:12.662Z,99599.03
2022-09-17T05:39:44.076Z,99591.94
2022-09-17T05:40:15.753Z,99593.88
2022-09-17T05:40:47.201Z,99591.13
2022-09-17T05:41:18.591Z,99592.25
2022-09-17T05:41:50.138Z,99600.13
2022-09-17T05:42:21.616Z,99593.06
2022-09-17T05:42:53.084Z,99594.69
2022-09-17T05:43:24.517Z,99597.91
2022-09-17T05:43:56.202Z,99598.22
2022-09-17T05:44:27.605Z,99599.34
2022-09-17T05:44:59.014Z,99607.53
2022-09-17T05:45:30.411Z,99606.41
2022-09-17T05:46:01.856Z,99606.72
2022-09-17T05:46:33.548Z,99605.91
2022-09-17T05:47:05.046Z,99596.91
2022-09-17T05:47:36.658Z,99607.53
2022-09-17T05:48:08.049Z,99597.41
2022-09-17T05:48:39.459Z,99599.03
2022-09-17T05:49:10.877Z,99601.25
2022-09-17T05:49:43.881Z,99602.66
2022-09-17T05:50:15.337Z,99605.41
2022-09-17T05:50:46.848Z,99603.16
2022-09-17T05:51:18.320Z,99607.53
2022-09-17T05:51:49.786Z,99601.25
2022-09-17T05:52:21.262Z,99601.25
2022-09-17T05:52:52.741Z,99598.53
2022-09-17T05:53:24.287Z,99607.53
2022-09-17T05:53:55.943Z,99608.31
2022-09-17T05:54:27.735Z,99606.72
2022-09-17T05:54:59.166Z,99599.13
2022-09-17T05:55:30.683Z,99595.88
2022-09-17T05:56:02.149Z,99602.66
2022-09-17T05:56:33.838Z,99608.94
2022-09-17T05:57:05.274Z,99607.81
2022-09-17T05:57:36.882Z,99608.13
2022-09-17T05:58:08.485Z,99613.28
2022-09-17T05:58:39.931Z,99612.78
2022-09-17T05:59:11.372Z,99618.03
2022-09-17T05:59:43.006Z,99611.66
2022-09-17T06:00:14.488Z,99609.84
2022-09-17T06:00:45.921Z,99612.56
2022-09-17T06:01:17.401Z,99616.41
2022-09-17T06:01:48.894Z,99611.75
2022-09-17T06:02:20.487Z,99610.97
2022-09-17T06:02:52.123Z,99613.38
2022-09-17T06:03:23.851Z,99608.72
2022-09-17T06:03:55.356Z,99612.56
2022-09-17T06:04:26.765Z,99616.13
2022-09-17T06:04:58.349Z,99611.97
2022-09-17T06:05:29.719Z,99608.53
2022-09-17T06:06:01.145Z,99610.75
2022-09-17T06:06:32.555Z,99616.00
2022-09-17T06:07:04.017Z,99616.13
2022-09-17T06:07:35.573Z,99618.84
2022-09-17T06:08:06.994Z,99615.31
2022-09-17T06:08:38.767Z,99610.16
2022-09-17T06:09:10.187Z,99615.31
2022-09-17T06:09:41.826Z,99614.50
2022-09-17T06:10:13.215Z,99619.97
2022-09-17T06:10:44.788Z,99621.06
2022-09-17T06:11:16.253Z,99615.31
2022-09-17T06:11:47.711Z,99618.53
2022-09-17T06:12:19.170Z,99619.66